sensor_id;sensor_type;location;lat;lon;timestamp;pressure;altitude;pressure_sealevel;temperature;humidity
81025;BME280;70500;50.292;6.666;2023-08-08T00:00:06;96493.53;;;18.33;62.57
81025;BME280;70500;50.292;6.666;2023-08-08T00:02:36;96500.97;;;18.32;62.63
81025;BME280;70500;50.292;6.666;2023-08-08T00:05:06;96488.56;;;18.31;62.48
81025;BME280;70500;50.292;6.666;2023-08-08T00:07:35;96493.00;;;18.29;62.66
81025;BME280;70500;50.292;6.666;2023-08-08T00:10:05;96489.81;;;18.30;62.59
81025;BME280;70500;50.292;6.666;2023-08-08T00:12:36;96492.53;;;18.30;62.57
81025;BME280;70500;50.292;6.666;2023-08-08T00:15:06;96494.22;;;18.28;62.66
81025;BME280;70500;50.292;6.666;2023-08-08T00:17:36;96489.53;;;18.28;62.60
81025;BME280;70500;50.292;6.666;2023-08-08T00:20:06;96490.53;;;18.31;63.08
81025;BME280;70500;50.292;6.666;2023-08-08T00:22:36;96490.34;;;18.34;62.73
81025;BME280;70500;50.292;6.666;2023-08-08T00:25:05;96487.56;;;18.29;62.80
81025;BME280;70500;50.292;6.666;2023-08-08T00:27:36;96488.09;;;18.33;62.82
81025;BME280;70500;50.292;6.666;2023-08-08T00:30:12;96487.81;;;18.31;62.85
81025;BME280;70500;50.292;6.666;2023-08-08T00:32:42;96489.81;;;18.30;62.91
81025;BME280;70500;50.292;6.666;2023-08-08T00:35:11;96485.09;;;18.31;62.82
81025;BME280;70500;50.292;6.666;2023-08-08T00:37:40;96483.13;;;18.31;62.45
81025;BME280;70500;50.292;6.666;2023-08-08T00:40:10;96488.78;;;18.28;63.02
81025;BME280;70500;50.292;6.666;2023-08-08T00:42:41;96485.00;;;18.25;63.03
81025;BME280;70500;50.292;6.666;2023-08-08T00:45:10;96491.50;;;18.28;62.94
81025;BME280;70500;50.292;6.666;2023-08-08T00:47:39;96481.13;;;18.32;62.90
81025;BME280;70500;50.292;6.666;2023-08-08T00:50:10;96478.34;;;18.26;62.93
81025;BME280;70500;50.292;6.666;2023-08-08T00:52:41;96475.91;;;18.28;62.98
81025;BME280;70500;50.292;6.666;2023-08-08T00:55:12;96476.38;;;18.27;63.13
81025;BME280;70500;50.292;6.666;2023-08-08T00:57:44;96469.41;;;18.26;63.07
81025;BME280;70500;50.292;6.666;2023-08-08T01:00:13;96469.09;;;18.24;63.24
81025;BME280;70500;50.292;6.666;2023-08-08T01:02:42;96461.81;;;18.30;62.98
81025;BME280;70500;50.292;6.666;2023-08-08T01:05:12;96452.31;;;18.25;62.93
81025;BME280;70500;50.292;6.666;2023-08-08T01:07:47;96451.16;;;18.32;62.83
81025;BME280;70500;50.292;6.666;2023-08-08T01:10:26;96449.94;;;18.33;62.84
81025;BME280;70500;50.292;6.666;2023-08-08T01:13:01;96458.53;;;18.26;63.13
81025;BME280;70500;50.292;6.666;2023-08-08T01:15:34;96457.78;;;18.25;63.30
81025;BME280;70500;50.292;6.666;2023-08-08T01:18:07;96455.34;;;18.27;63.27
81025;BME280;70500;50.292;6.666;2023-08-08T01:20:38;96448.25;;;18.20;63.43
81025;BME280;70500;50.292;6.666;2023-08-08T01:23:12;96451.84;;;18.27;63.10
81025;BME280;70500;50.292;6.666;2023-08-08T01:25:46;96445.47;;;18.30;63.18
81025;BME280;70500;50.292;6.666;2023-08-08T01:28:20;96446.69;;;18.29;63.33
81025;BME280;70500;50.292;6.666;2023-08-08T01:30:49;96445.19;;;18.28;63.25
81025;BME280;70500;50.292;6.666;2023-08-08T01:33:18;96438.22;;;18.27;63.24
81025;BME280;70500;50.292;6.666;2023-08-08T01:35:54;96446.13;;;18.25;63.35
81025;BME280;70500;50.292;6.666;2023-08-08T01:38:31;96447.31;;;18.24;63.43
81025;BME280;70500;50.292;6.666;2023-08-08T01:41:04;96440.66;;;18.25;63.32
81025;BME280;70500;50.292;6.666;2023-08-08T01:43:36;96451.72;;;18.21;63.54
81025;BME280;70500;50.292;6.666;2023-08-08T01:46:07;96452.47;;;18.21;63.45
81025;BME280;70500;50.292;6.666;2023-08-08T01:48:36;96447.78;;;18.22;63.45
81025;BME280;70500;50.292;6.666;2023-08-08T01:51:05;96442.81;;;18.20;63.39
81025;BME280;70500;50.292;6.666;2023-08-08T01:53:35;96439.97;;;18.15;63.70
81025;BME280;70500;50.292;6.666;2023-08-08T01:56:06;96444.97;;;18.16;63.50
81025;BME280;70500;50.292;6.666;2023-08-08T01:58:35;96441.28;;;18.19;63.69
81025;BME280;70500;50.292;6.666;2023-08-08T02:01:04;96446.19;;;18.15;63.77
81025;BME280;70500;50.292;6.666;2023-08-08T02:03:34;96432.94;;;18.23;63.34
81025;BME280;70500;50.292;6.666;2023-08-08T02:06:04;96441.94;;;18.14;63.66
81025;BME280;70500;50.292;6.666;2023-08-08T02:08:34;96436.50;;;18.14;63.71
81025;BME280;70500;50.292;6.666;2023-08-08T02:11:03;96448.16;;;18.15;63.73
81025;BME280;70500;50.292;6.666;2023-08-08T02:13:33;96441.94;;;18.14;63.75
81025;BME280;70500;50.292;6.666;2023-08-08T02:16:03;96438.56;;;18.19;63.49
81025;BME280;70500;50.292;6.666;2023-08-08T02:18:32;96440.06;;;18.20;63.43
81025;BME280;70500;50.292;6.666;2023-08-08T02:21:02;96436.13;;;18.21;63.46
81025;BME280;70500;50.292;6.666;2023-08-08T02:23:31;96444.97;;;18.16;63.57
81025;BME280;70500;50.292;6.666;2023-08-08T02:26:00;96445.44;;;18.15;63.56
81025;BME280;70500;50.292;6.666;2023-08-08T02:28:29;96450.81;;;18.09;63.79
81025;BME280;70500;50.292;6.666;2023-08-08T02:31:00;96442.41;;;18.13;63.62
81025;BME280;70500;50.292;6.666;2023-08-08T02:33:29;96438.47;;;18.14;63.55
81025;BME280;70500;50.292;6.666;2023-08-08T02:35:59;96444.31;;;18.07;64.04
81025;BME280;70500;50.292;6.666;2023-08-08T02:38:28;96453.78;;;18.11;63.76
81025;BME280;70500;50.292;6.666;2023-08-08T02:40:57;96442.25;;;18.16;63.55
81025;BME280;70500;50.292;6.666;2023-08-08T02:43:26;96452.84;;;18.14;63.71
81025;BME280;70500;50.292;6.666;2023-08-08T02:45:55;96445.81;;;18.08;63.76
81025;BME280;70500;50.292;6.666;2023-08-08T02:48:26;96448.09;;;18.09;63.77
81025;BME280;70500;50.292;6.666;2023-08-08T02:50:55;96445.06;;;18.07;63.87
81025;BME280;70500;50.292;6.666;2023-08-08T02:53:27;96434.38;;;18.04;63.91
81025;BME280;70500;50.292;6.666;2023-08-08T02:55:56;96445.06;;;18.07;63.63
81025;BME280;70500;50.292;6.666;2023-08-08T02:58:29;96440.09;;;18.06;63.56
81025;BME280;70500;50.292;6.666;2023-08-08T03:00:59;96441.03;;;18.03;63.72
81025;BME280;70500;50.292;6.666;2023-08-08T03:03:30;96436.34;;;18.03;63.68
81025;BME280;70500;50.292;6.666;2023-08-08T03:06:00;96422.44;;;18.01;63.64
81025;BME280;70500;50.292;6.666;2023-08-08T03:08:29;96415.19;;;17.98;63.89
81025;BME280;70500;50.292;6.666;2023-08-08T03:10:59;96414.72;;;18.00;63.86
81025;BME280;70500;50.292;6.666;2023-08-08T03:13:29;96420.56;;;18.07;63.48
81025;BME280;70500;50.292;6.666;2023-08-08T03:15:59;96413.22;;;17.99;63.70
81025;BME280;70500;50.292;6.666;2023-08-08T03:18:30;96405.63;;;18.03;63.66
81025;BME280;70500;50.292;6.666;2023-08-08T03:20:59;96401.41;;;18.02;63.63
81025;BME280;70500;50.292;6.666;2023-08-08T03:23:32;96400.94;;;18.03;63.51
81025;BME280;70500;50.292;6.666;2023-08-08T03:26:01;96406.38;;;18.03;63.65
81025;BME280;70500;50.292;6.666;2023-08-08T03:28:30;96407.31;;;18.00;63.61
81025;BME280;70500;50.292;6.666;2023-08-08T03:31:00;96414.72;;;18.00;63.60
81025;BME280;70500;50.292;6.666;2023-08-08T03:33:33;96404.59;;;18.00;63.58
81025;BME280;70500;50.292;6.666;2023-08-08T03:36:04;96406.09;;;18.01;63.65
81025;BME280;70500;50.292;6.666;2023-08-08T03:38:34;96412.19;;;17.96;63.75
81025;BME280;70500;50.292;6.666;2023-08-08T03:41:03;96410.78;;;18.01;63.52
81025;BME280;70500;50.292;6.666;2023-08-08T03:43:34;96407.50;;;17.97;63.76
81025;BME280;70500;50.292;6.666;2023-08-08T03:46:03;96409.47;;;17.96;63.86
81025;BME280;70500;50.292;6.666;2023-08-08T03:48:33;96400.06;;;17.97;63.86
81025;BME280;70500;50.292;6.666;2023-08-08T03:51:03;96402.97;;;17.94;63.92
81025;BME280;70500;50.292;6.666;2023-08-08T03:53:32;96397.28;;;17.92;63.99
81025;BME280;70500;50.292;6.666;2023-08-08T03:56:01;96399.13;;;18.00;63.79
81025;BME280;70500;50.292;6.666;2023-08-08T03:58:31;96388.41;;;18.11;63.67
81025;BME280;70500;50.292;6.666;2023-08-08T04:01:00;96399.06;;;18.09;63.61
81025;BME280;70500;50.292;6.666;2023-08-08T04:03:33;96393.13;;;17.96;63.89
81025;BME280;70500;50.292;6.666;2023-08-08T04:06:02;96391.44;;;17.99;63.82
81025;BME280;70500;50.292;6.666;2023-08-08T04:08:33;96388.72;;;17.99;63.47
81025;BME280;70500;50.292;6.666;2023-08-08T04:11:02;96386.66;;;17.94;63.63
81025;BME280;70500;50.292;6.666;2023-08-08T04:13:32;96390.13;;;17.94;63.63
81025;BME280;70500;50.292;6.666;2023-08-08T04:16:01;96398.50;;;17.91;63.43
81025;BME280;70500;50.292;6.666;2023-08-08T04:18:30;96396.72;;;17.88;63.62
81025;BME280;70500;50.292;6.666;2023-08-08T04:21:01;96393.06;;;17.91;63.35
81025;BME280;70500;50.292;6.666;2023-08-08T04:23:30;96394.34;;;17.95;63.41
81025;BME280;70500;50.292;6.666;2023-08-08T04:25:59;96387.31;;;17.89;63.28
81025;BME280;70500;50.292;6.666;2023-08-08T04:28:28;96397.47;;;17.88;63.33
81025;BME280;70500;50.292;6.666;2023-08-08T04:30:57;96383.38;;;17.90;63.23
81025;BME280;70500;50.292;6.666;2023-08-08T04:33:26;96391.84;;;17.92;62.99
81025;BME280;70500;50.292;6.666;2023-08-08T04:35:56;96388.38;;;17.91;62.91
81025;BME280;70500;50.292;6.666;2023-08-08T04:38:26;96396.25;;;17.89;62.92
81025;BME280;70500;50.292;6.666;2023-08-08T04:40:55;96389.94;;;17.83;62.93
81025;BME280;70500;50.292;6.666;2023-08-08T04:43:25;96400.19;;;17.88;62.96
81025;BME280;70500;50.292;6.666;2023-08-08T04:45:55;96396.53;;;17.91;62.68
81025;BME280;70500;50.292;6.666;2023-08-08T04:48:24;96400.00;;;17.92;62.54
81025;BME280;70500;50.292;6.666;2023-08-08T04:50:53;96410.22;;;17.97;63.08
81025;BME280;70500;50.292;6.666;2023-08-08T04:53:22;96410.50;;;17.99;64.87
81025;BME280;70500;50.292;6.666;2023-08-08T04:55:53;96398.38;;;18.00;65.99
81025;BME280;70500;50.292;6.666;2023-08-08T04:58:22;96410.50;;;17.99;66.12
81025;BME280;70500;50.292;6.666;2023-08-08T05:00:51;96410.16;;;17.91;65.71
81025;BME280;70500;50.292;6.666;2023-08-08T05:03:20;96410.69;;;17.95;65.31
81025;BME280;70500;50.292;6.666;2023-08-08T05:05:50;96405.72;;;17.94;65.24
81025;BME280;70500;50.292;6.666;2023-08-08T05:08:19;96413.34;;;17.90;65.26
81025;BME280;70500;50.292;6.666;2023-08-08T05:10:48;96404.69;;;17.91;64.82
81025;BME280;70500;50.292;6.666;2023-08-08T05:13:18;96401.69;;;17.89;64.87
81025;BME280;70500;50.292;6.666;2023-08-08T05:15:47;96413.13;;;17.93;64.65
81025;BME280;70500;50.292;6.666;2023-08-08T05:18:16;96406.94;;;17.93;64.20
81025;BME280;70500;50.292;6.666;2023-08-08T05:20:46;96409.88;;;17.89;64.30
81025;BME280;70500;50.292;6.666;2023-08-08T05:23:15;96402.44;;;17.90;64.26
81025;BME280;70500;50.292;6.666;2023-08-08T05:25:45;96409.13;;;17.89;64.05
81025;BME280;70500;50.292;6.666;2023-08-08T05:28:14;96391.16;;;17.82;64.14
81025;BME280;70500;50.292;6.666;2023-08-08T05:30:44;96403.44;;;17.92;63.74
81025;BME280;70500;50.292;6.666;2023-08-08T05:33:14;96397.66;;;17.84;63.91
81025;BME280;70500;50.292;6.666;2023-08-08T05:35:43;96401.88;;;17.85;63.66
81025;BME280;70500;50.292;6.666;2023-08-08T05:38:12;96405.34;;;17.86;63.58
81025;BME280;70500;50.292;6.666;2023-08-08T05:40:41;96399.44;;;17.88;63.67
81025;BME280;70500;50.292;6.666;2023-08-08T05:43:10;96404.41;;;17.89;63.48
81025;BME280;70500;50.292;6.666;2023-08-08T05:45:46;96403.84;;;17.85;63.25
81025;BME280;70500;50.292;6.666;2023-08-08T05:48:15;96399.16;;;17.85;63.34
81025;BME280;70500;50.292;6.666;2023-08-08T05:50:44;96404.59;;;17.85;63.22
81025;BME280;70500;50.292;6.666;2023-08-08T05:53:13;96398.22;;;17.89;63.14
81025;BME280;70500;50.292;6.666;2023-08-08T05:55:42;96403.09;;;17.84;63.12
81025;BME280;70500;50.292;6.666;2023-08-08T05:58:12;96396.16;;;17.83;63.04
81025;BME280;70500;50.292;6.666;2023-08-08T06:00:41;96406.00;;;17.81;62.96
81025;BME280;70500;50.292;6.666;2023-08-08T06:03:11;96403.28;;;17.81;62.83
81025;BME280;70500;50.292;6.666;2023-08-08T06:05:41;96398.88;;;17.83;63.02
81025;BME280;70500;50.292;6.666;2023-08-08T06:08:10;96402.06;;;17.82;62.78
81025;BME280;70500;50.292;6.666;2023-08-08T06:10:41;96403.56;;;17.83;62.68
81025;BME280;70500;50.292;6.666;2023-08-08T06:13:10;96398.13;;;17.83;62.70
81025;BME280;70500;50.292;6.666;2023-08-08T06:15:39;96399.34;;;17.82;62.54
81025;BME280;70500;50.292;6.666;2023-08-08T06:18:08;96400.56;;;17.81;62.61
81025;BME280;70500;50.292;6.666;2023-08-08T06:20:39;96404.78;;;17.82;62.70
81025;BME280;70500;50.292;6.666;2023-08-08T06:23:08;96395.56;;;17.79;62.69
81025;BME280;70500;50.292;6.666;2023-08-08T06:25:38;96398.31;;;17.79;62.67
81025;BME280;70500;50.292;6.666;2023-08-08T06:28:07;96403.28;;;17.81;62.52
81025;BME280;70500;50.292;6.666;2023-08-08T06:30:36;96403.00;;;17.79;62.59
81025;BME280;70500;50.292;6.666;2023-08-08T06:33:05;96406.19;;;17.77;62.50
81025;BME280;70500;50.292;6.666;2023-08-08T06:35:34;96403.00;;;17.79;62.63
81025;BME280;70500;50.292;6.666;2023-08-08T06:38:05;96406.19;;;17.77;62.50
81025;BME280;70500;50.292;6.666;2023-08-08T06:40:34;96405.72;;;17.79;62.36
81025;BME280;70500;50.292;6.666;2023-08-08T06:43:04;96404.50;;;17.80;62.28
81025;BME280;70500;50.292;6.666;2023-08-08T06:45:33;96408.16;;;17.77;62.34
81025;BME280;70500;50.292;6.666;2023-08-08T06:48:02;96411.91;;;17.79;62.30
81025;BME280;70500;50.292;6.666;2023-08-08T06:50:32;96407.22;;;17.80;62.27
81025;BME280;70500;50.292;6.666;2023-08-08T06:53:02;96410.22;;;17.82;62.14
81025;BME280;70500;50.292;6.666;2023-08-08T06:55:33;96406.00;;;17.81;61.94
81025;BME280;70500;50.292;6.666;2023-08-08T06:58:02;96405.25;;;17.80;62.21
81025;BME280;70500;50.292;6.666;2023-08-08T07:00:31;96401.22;;;17.76;62.17
81025;BME280;70500;50.292;6.666;2023-08-08T07:03:01;96395.56;;;17.79;62.17
81025;BME280;70500;50.292;6.666;2023-08-08T07:05:30;96392.84;;;17.79;62.02
81025;BME280;70500;50.292;6.666;2023-08-08T07:07:59;96400.28;;;17.79;62.05
81025;BME280;70500;50.292;6.666;2023-08-08T07:10:28;96406.00;;;17.81;61.83
81025;BME280;70500;50.292;6.666;2023-08-08T07:12:59;96394.53;;;17.77;61.96
81025;BME280;70500;50.292;6.666;2023-08-08T07:15:28;96390.88;;;17.80;62.08
81025;BME280;70500;50.292;6.666;2023-08-08T07:17:58;96403.75;;;17.79;61.93
81025;BME280;70500;50.292;6.666;2023-08-08T07:20:27;96406.94;;;17.78;62.03
81025;BME280;70500;50.292;6.666;2023-08-08T07:22:56;96405.25;;;17.80;61.79
81025;BME280;70500;50.292;6.666;2023-08-08T07:25:27;96391.63;;;17.80;61.78
81025;BME280;70500;50.292;6.666;2023-08-08T07:27:57;96410.69;;;17.80;61.91
81025;BME280;70500;50.292;6.666;2023-08-08T07:30:27;96403.75;;;17.79;61.79
81025;BME280;70500;50.292;6.666;2023-08-08T07:32:56;96401.59;;;17.83;61.64
81025;BME280;70500;50.292;6.666;2023-08-08T07:35:25;96404.50;;;17.80;61.79
81025;BME280;70500;50.292;6.666;2023-08-08T07:37:55;96403.84;;;17.85;61.54
81025;BME280;70500;50.292;6.666;2023-08-08T07:40:24;96410.97;;;17.82;61.64
81025;BME280;70500;50.292;6.666;2023-08-08T07:42:53;96404.50;;;17.80;61.80
81025;BME280;70500;50.292;6.666;2023-08-08T07:45:22;96398.13;;;17.83;61.56
81025;BME280;70500;50.292;6.666;2023-08-08T07:47:52;96394.47;;;17.86;61.66
81025;BME280;70500;50.292;6.666;2023-08-08T07:50:21;96389.94;;;17.83;61.66
81025;BME280;70500;50.292;6.666;2023-08-08T07:52:51;96388.84;;;17.90;61.24
81025;BME280;70500;50.292;6.666;2023-08-08T07:55:20;96394.19;;;17.84;62.04
81025;BME280;70500;50.292;6.666;2023-08-08T07:57:49;96399.34;;;17.82;61.67
81025;BME280;70500;50.292;6.666;2023-08-08T08:00:18;96392.69;;;17.83;61.59
81025;BME280;70500;50.292;6.666;2023-08-08T08:02:48;96394.94;;;17.84;61.34
81025;BME280;70500;50.292;6.666;2023-08-08T08:05:18;96402.34;;;17.84;61.42
81025;BME280;70500;50.292;6.666;2023-08-08T08:07:48;96392.03;;;17.88;61.32
81025;BME280;70500;50.292;6.666;2023-08-08T08:10:17;96402.44;;;17.90;61.21
81025;BME280;70500;50.292;6.666;2023-08-08T08:12:46;96399.16;;;17.85;61.32
81025;BME280;70500;50.292;6.666;2023-08-08T08:15:15;96398.41;;;17.85;61.35
81025;BME280;70500;50.292;6.666;2023-08-08T08:17:44;96402.63;;;17.86;61.19
81025;BME280;70500;50.292;6.666;2023-08-08T08:20:13;96397.19;;;17.86;61.19
81025;BME280;70500;50.292;6.666;2023-08-08T08:22:44;96390.25;;;17.85;61.41
81025;BME280;70500;50.292;6.666;2023-08-08T08:25:14;96387.22;;;17.83;61.39
81025;BME280;70500;50.292;6.666;2023-08-08T08:27:43;96384.13;;;17.90;61.34
81025;BME280;70500;50.292;6.666;2023-08-08T08:30:12;96382.91;;;17.91;61.06
81025;BME280;70500;50.292;6.666;2023-08-08T08:32:44;96382.91;;;17.91;61.24
81025;BME280;70500;50.292;6.666;2023-08-08T08:35:13;96390.69;;;17.98;60.82
81025;BME280;70500;50.292;6.666;2023-08-08T08:37:46;96383.91;;;17.94;60.97
81025;BME280;70500;50.292;6.666;2023-08-08T08:40:15;96387.69;;;17.96;60.94
81025;BME280;70500;50.292;6.666;2023-08-08T08:42:45;96392.84;;;17.94;61.05
81025;BME280;70500;50.292;6.666;2023-08-08T08:45:20;96384.78;;;18.00;60.60
81025;BME280;70500;50.292;6.666;2023-08-08T08:47:49;96390.41;;;17.96;60.89
81025;BME280;70500;50.292;6.666;2023-08-08T08:50:27;96387.22;;;17.98;60.77
81025;BME280;70500;50.292;6.666;2023-08-08T08:52:58;96391.44;;;17.99;60.96
81025;BME280;70500;50.292;6.666;2023-08-08T08:55:28;96392.66;;;17.98;60.73
81025;BME280;70500;50.292;6.666;2023-08-08T08:57:58;96393.41;;;17.98;60.85
81025;BME280;70500;50.292;6.666;2023-08-08T09:00:27;96391.16;;;17.97;60.49
81025;BME280;70500;50.292;6.666;2023-08-08T09:02:58;96401.88;;;18.00;60.57
81025;BME280;70500;50.292;6.666;2023-08-08T09:05:27;96401.13;;;18.00;60.68
81025;BME280;70500;50.292;6.666;2023-08-08T09:07:59;96403.56;;;17.98;60.62
81025;BME280;70500;50.292;6.666;2023-08-08T09:10:31;96402.34;;;17.99;60.61
81025;BME280;70500;50.292;6.666;2023-08-08T09:13:00;96396.88;;;17.99;60.53
81025;BME280;70500;50.292;6.666;2023-08-08T09:15:31;96399.13;;;18.00;60.70
81025;BME280;70500;50.292;6.666;2023-08-08T09:18:01;96388.16;;;17.95;60.66
81025;BME280;70500;50.292;6.666;2023-08-08T09:20:30;96388.44;;;17.97;60.51
81025;BME280;70500;50.292;6.666;2023-08-08T09:23:00;96379.31;;;18.00;60.45
81025;BME280;70500;50.292;6.666;2023-08-08T09:25:30;96380.84;;;18.01;60.32
81025;BME280;70500;50.292;6.666;2023-08-08T09:27:59;96373.69;;;18.03;59.91
81025;BME280;70500;50.292;6.666;2023-08-08T09:30:28;96373.41;;;18.01;60.26
81025;BME280;70500;50.292;6.666;2023-08-08T09:33:01;96371.25;;;18.05;60.21
81025;BME280;70500;50.292;6.666;2023-08-08T09:35:30;96372.00;;;18.06;60.08
81025;BME280;70500;50.292;6.666;2023-08-08T09:38:02;96370.97;;;18.03;60.25
81025;BME280;70500;50.292;6.666;2023-08-08T09:40:31;96368.53;;;18.05;60.21
81025;BME280;70500;50.292;6.666;2023-08-08T09:43:00;96378.19;;;18.06;60.02
81025;BME280;70500;50.292;6.666;2023-08-08T09:45:36;96376.50;;;18.09;60.13
81025;BME280;70500;50.292;6.666;2023-08-08T09:48:06;96384.41;;;18.07;59.91
81025;BME280;70500;50.292;6.666;2023-08-08T09:50:36;96387.59;;;18.05;60.00
81025;BME280;70500;50.292;6.666;2023-08-08T09:53:08;96388.81;;;18.04;60.04
81025;BME280;70500;50.292;6.666;2023-08-08T09:55:38;96389.56;;;18.05;59.92
81025;BME280;70500;50.292;6.666;2023-08-08T09:58:08;96397.72;;;18.05;60.02
81025;BME280;70500;50.292;6.666;2023-08-08T10:00:37;96382.72;;;18.09;59.70
81025;BME280;70500;50.292;6.666;2023-08-08T10:03:07;96383.66;;;18.06;59.71
81025;BME280;70500;50.292;6.666;2023-08-08T10:05:37;96393.50;;;18.04;59.96
81025;BME280;70500;50.292;6.666;2023-08-08T10:08:07;96381.41;;;18.05;60.13
81025;BME280;70500;50.292;6.666;2023-08-08T10:10:37;96400.75;;;18.07;60.08
81025;BME280;70500;50.292;6.666;2023-08-08T10:13:07;96391.63;;;18.10;59.86
81025;BME280;70500;50.292;6.666;2023-08-08T10:15:37;96381.97;;;18.09;59.95
81025;BME280;70500;50.292;6.666;2023-08-08T10:18:06;96380.00;;;18.09;59.88
81025;BME280;70500;50.292;6.666;2023-08-08T10:20:36;96373.03;;;18.08;59.93
81025;BME280;70500;50.292;6.666;2023-08-08T10:23:08;96377.25;;;18.09;59.82
81025;BME280;70500;50.292;6.666;2023-08-08T10:25:37;96370.59;;;18.10;59.82
81025;BME280;70500;50.292;6.666;2023-08-08T10:28:09;96371.06;;;18.09;59.61
81025;BME280;70500;50.292;6.666;2023-08-08T10:30:55;96371.06;;;18.09;59.82
81025;BME280;70500;50.292;6.666;2023-08-08T10:33:26;96368.63;;;18.11;59.65
81025;BME280;70500;50.292;6.666;2023-08-08T10:36:00;96376.78;;;18.11;59.80
81025;BME280;70500;50.292;6.666;2023-08-08T10:38:42;96381.00;;;18.12;59.67
81025;BME280;70500;50.292;6.666;2023-08-08T10:41:13;96372.34;;;18.13;59.57
81025;BME280;70500;50.292;6.666;2023-08-08T10:43:49;96372.06;;;18.11;59.32
81025;BME280;70500;50.292;6.666;2023-08-08T10:46:26;96369.91;;;18.15;59.48
81025;BME280;70500;50.292;6.666;2023-08-08T10:48:57;96371.41;;;18.16;59.33
81025;BME280;70500;50.292;6.666;2023-08-08T10:51:34;96374.88;;;18.17;59.32
81025;BME280;70500;50.292;6.666;2023-08-08T10:54:06;96374.41;;;18.18;59.21
81025;BME280;70500;50.292;6.666;2023-08-08T10:56:36;96373.47;;;18.21;59.32
81025;BME280;70500;50.292;6.666;2023-08-08T10:59:14;96387.56;;;18.20;59.28
81025;BME280;70500;50.292;6.666;2023-08-08T11:01:47;96384.28;;;18.16;59.13
81025;BME280;70500;50.292;6.666;2023-08-08T11:04:19;96384.56;;;18.18;59.23
81025;BME280;70500;50.292;6.666;2023-08-08T11:06:49;96373.19;;;18.19;59.21
81025;BME280;70500;50.292;6.666;2023-08-08T11:09:20;96376.38;;;18.18;59.12
81025;BME280;70500;50.292;6.666;2023-08-08T11:11:49;96370.94;;;18.18;59.04
81025;BME280;70500;50.292;6.666;2023-08-08T11:14:20;96366.53;;;18.20;59.25
81025;BME280;70500;50.292;6.666;2023-08-08T11:16:51;96372.25;;;18.23;58.96
81025;BME280;70500;50.292;6.666;2023-08-08T11:19:21;96370.28;;;18.23;59.10
81025;BME280;70500;50.292;6.666;2023-08-08T11:21:52;96367.13;;;18.25;58.93
81025;BME280;70500;50.292;6.666;2023-08-08T11:24:24;96358.94;;;18.25;59.13
81025;BME280;70500;50.292;6.666;2023-08-08T11:26:58;96368.63;;;18.26;58.96
81025;BME280;70500;50.292;6.666;2023-08-08T11:29:27;96360.13;;;18.24;58.78
81025;BME280;70500;50.292;6.666;2023-08-08T11:32:00;96355.00;;;18.26;58.58
81025;BME280;70500;50.292;6.666;2023-08-08T11:34:31;96354.25;;;18.25;58.84
81025;BME280;70500;50.292;6.666;2023-08-08T11:37:01;96357.72;;;18.26;58.89
81025;BME280;70500;50.292;6.666;2023-08-08T11:39:32;96347.56;;;18.26;58.85
81025;BME280;70500;50.292;6.666;2023-08-08T11:42:02;96347.38;;;18.30;58.67
81025;BME280;70500;50.292;6.666;2023-08-08T11:44:32;96351.78;;;18.27;58.52
81025;BME280;70500;50.292;6.666;2023-08-08T11:47:02;96355.28;;;18.28;58.67
81025;BME280;70500;50.292;6.666;2023-08-08T11:49:40;96350.28;;;18.26;58.49
81025;BME280;70500;50.292;6.666;2023-08-08T11:52:09;96346.34;;;18.27;58.17
81025;BME280;70500;50.292;6.666;2023-08-08T11:54:41;96333.75;;;18.30;58.62
81025;BME280;70500;50.292;6.666;2023-08-08T11:57:10;96339.69;;;18.28;58.76
81025;BME280;70500;50.292;6.666;2023-08-08T11:59:39;96337.69;;;18.29;58.50
81025;BME280;70500;50.292;6.666;2023-08-08T12:02:09;96326.06;;;18.28;58.46
81025;BME280;70500;50.292;6.666;2023-08-08T12:04:38;96326.53;;;18.27;58.41
81025;BME280;70500;50.292;6.666;2023-08-08T12:07:07;96331.03;;;18.30;58.40
81025;BME280;70500;50.292;6.666;2023-08-08T12:09:36;96328.78;;;18.28;58.63
81025;BME280;70500;50.292;6.666;2023-08-08T12:12:08;96317.88;;;18.28;58.55
81025;BME280;70500;50.292;6.666;2023-08-08T12:14:38;96324.84;;;18.29;58.85
81025;BME280;70500;50.292;6.666;2023-08-08T12:17:18;96313.94;;;18.29;58.53
81025;BME280;70500;50.292;6.666;2023-08-08T12:19:47;96327.06;;;18.31;58.61
81025;BME280;70500;50.292;6.666;2023-08-08T12:22:17;96318.16;;;18.30;58.41
81025;BME280;70500;50.292;6.666;2023-08-08T12:24:46;96313.44;;;18.31;58.56
81025;BME280;70500;50.292;6.666;2023-08-08T12:27:16;96313.44;;;18.31;58.33
81025;BME280;70500;50.292;6.666;2023-08-08T12:29:46;96307.25;;;18.30;58.55
81025;BME280;70500;50.292;6.666;2023-08-08T12:32:15;96307.25;;;18.30;58.38
81025;BME280;70500;50.292;6.666;2023-08-08T12:34:44;96299.09;;;18.30;58.59
81025;BME280;70500;50.292;6.666;2023-08-08T12:37:13;96299.81;;;18.31;58.49
81025;BME280;70500;50.292;6.666;2023-08-08T12:39:42;96301.81;;;18.30;58.38
81025;BME280;70500;50.292;6.666;2023-08-08T12:42:11;96301.06;;;18.30;58.48
81025;BME280;70500;50.292;6.666;2023-08-08T12:44:42;96309.22;;;18.30;58.31
81025;BME280;70500;50.292;6.666;2023-08-08T12:47:11;96313.19;;;18.29;58.35
81025;BME280;70500;50.292;6.666;2023-08-08T12:49:42;96323.59;;;18.30;58.44
81025;BME280;70500;50.292;6.666;2023-08-08T12:52:11;96331.78;;;18.30;58.21
81025;BME280;70500;50.292;6.666;2023-08-08T12:54:41;96326.81;;;18.29;58.05
81025;BME280;70500;50.292;6.666;2023-08-08T12:57:10;96320.13;;;18.30;58.42
81025;BME280;70500;50.292;6.666;2023-08-08T12:59:39;96329.53;;;18.29;58.57
81025;BME280;70500;50.292;6.666;2023-08-08T13:02:11;96321.34;;;18.29;58.46
81025;BME280;70500;50.292;6.666;2023-08-08T13:04:40;96325.59;;;18.30;58.29
81025;BME280;70500;50.292;6.666;2023-08-08T13:07:09;96336.47;;;18.30;58.52
81025;BME280;70500;50.292;6.666;2023-08-08T13:09:38;96340.44;;;18.29;58.49
81025;BME280;70500;50.292;6.666;2023-08-08T13:12:08;96329.53;;;18.29;58.30
81025;BME280;70500;50.292;6.666;2023-08-08T13:14:37;96335.72;;;18.29;58.25